Time;durP1;ratioP1;P1;durP2;ratioP2;P2;SDS_P1;SDS_P2;PMS_P1;PMS_P2;Temp;Humidity;BMP_temperature;BMP_pressure;BME280_temperature;BME280_humidity;BME280_pressure;Samples;Min_cycle;Max_cycle;Signal;HPM_P1;HPM_P2
2020/12/13 00:00:32;;;;;;;30.88;7.93;;;;;;;;;;5029633;28;20080;-56
2020/12/13 00:02:58;;;;;;;;;;;;;;;;;;5020753;28;20048;-59
2020/12/13 00:05:38;;;;;;;26.73;7.65;;;;;;;;;;5050824;28;19945;-60
2020/12/13 00:08:04;;;;;;;23.95;8.35;;;;;;;;;;5037359;28;20052;-57
2020/12/13 00:10:33;;;;;;;26.33;7.55;;;;;;;;;;5042396;28;20033;-54
2020/12/13 00:12:59;;;;;;;33.80;7.05;;;;;;;;;;5054523;28;20073;-56
2020/12/13 00:15:25;;;;;;;26.08;8.65;;;;;;;;;;5042763;28;20025;-57
2020/12/13 00:17:58;;;;;;;27.50;8.65;;;;;;;;;;5038225;28;20045;-56
2020/12/13 00:20:25;;;;;;;24.60;8.30;;;;;;;;;;5030948;28;20046;-59
2020/12/13 00:22:52;;;;;;;37.80;7.75;;;;;;;;;;5014310;28;20046;-57
2020/12/13 00:25:18;;;;;;;37.60;8.48;;;;;;;;;;5035025;28;20053;-55
2020/12/13 00:27:46;;;;;;;31.63;8.13;;;;;;;;;;5057734;28;20084;-55
2020/12/13 00:30:12;;;;;;;26.70;8.95;;;;;;;;;;5068036;28;20146;-56
2020/12/13 00:32:38;;;;;;;27.05;7.97;;;;;;;;;;5044034;28;20041;-54
2020/12/13 00:35:04;;;;;;;25.38;8.32;;;;;;;;;;5038060;28;20041;-57
2020/12/13 00:37:31;;;;;;;31.98;8.35;;;;;;;;;;5057123;28;20048;-55
2020/12/13 00:39:57;;;;;;;26.60;8.73;;;;;;;;;;5053354;28;20041;-58
2020/12/13 00:42:23;;;;;;;37.05;10.10;;;;;;;;;;5058249;28;20079;-57
2020/12/13 00:44:49;;;;;;;25.85;8.60;;;;;;;;;;5020706;28;20048;-55
2020/12/13 00:47:15;;;;;;;30.13;9.57;;;;;;;;;;5036570;28;20052;-57
2020/12/13 00:49:42;;;;;;;26.95;9.20;;;;;;;;;;5033898;28;20080;-59
2020/12/13 00:52:08;;;;;;;41.45;9.35;;;;;;;;;;5058025;28;20061;-56
2020/12/13 00:54:35;;;;;;;29.83;8.63;;;;;;;;;;5054652;28;20033;-57
2020/12/13 00:57:01;;;;;;;35.83;8.85;;;;;;;;;;5020555;28;20045;-54
2020/12/13 00:59:27;;;;;;;25.02;8.40;;;;;;;;;;5009356;28;20130;-55
2020/12/13 01:01:54;;;;;;;31.60;9.02;;;;;;;;;;5017951;28;20057;-55
2020/12/13 01:04:20;;;;;;;34.15;9.48;;;;;;;;;;5064418;28;20114;-54
2020/12/13 01:06:46;;;;;;;26.67;8.35;;;;;;;;;;5039550;28;20049;-54
2020/12/13 01:09:12;;;;;;;27.38;9.30;;;;;;;;;;5020976;28;20048;-56
2020/12/13 01:11:39;;;;;;;31.58;9.25;;;;;;;;;;5085512;28;20044;-57
2020/12/13 01:14:05;;;;;;;29.13;8.15;;;;;;;;;;5060017;28;20049;-58
2020/12/13 01:16:32;;;;;;;27.38;8.82;;;;;;;;;;5044416;28;20064;-55
2020/12/13 01:18:59;;;;;;;27.70;8.73;;;;;;;;;;5021331;28;20065;-57
2020/12/13 01:21:26;;;;;;;22.55;8.55;;;;;;;;;;5017990;28;20038;-57
2020/12/13 01:23:52;;;;;;;27.55;8.80;;;;;;;;;;5040518;28;20053;-54
2020/12/13 01:26:19;;;;;;;29.30;8.13;;;;;;;;;;5044336;28;20036;-57
2020/12/13 01:28:47;;;;;;;25.52;8.27;;;;;;;;;;5076887;28;20036;-59
2020/12/13 01:31:13;;;;;;;29.48;8.88;;;;;;;;;;5038490;28;20091;-53
2020/12/13 01:33:39;;;;;;;30.73;9.15;;;;;;;;;;5059902;28;20061;-54
2020/12/13 01:36:09;;;;;;;29.70;8.88;;;;;;;;;;5057495;28;20098;-59
2020/12/13 01:38:35;;;;;;;26.00;8.75;;;;;;;;;;5060040;28;20071;-56
2020/12/13 01:41:02;;;;;;;28.73;8.57;;;;;;;;;;5055712;28;20048;-55
2020/12/13 01:43:27;;;;;;;26.70;8.82;;;;;;;;;;5040776;28;20041;-54
2020/12/13 01:45:54;;;;;;;23.55;8.10;;;;;;;;;;5042542;28;20048;-55
2020/12/13 01:48:21;;;;;;;26.27;8.82;;;;;;;;;;5037800;28;20045;-52
2020/12/13 01:50:56;;;;;;;28.27;8.35;;;;;;;;;;5057377;28;20135;-57
2020/12/13 01:53:26;;;;;;;27.70;8.35;;;;;;;;;;5036753;28;20053;-55
2020/12/13 01:55:55;;;;;;;25.15;8.20;;;;;;;;;;5043087;28;20114;-52
2020/12/13 01:58:25;;;;;;;26.65;8.20;;;;;;;;;;5035727;28;20049;-56
2020/12/13 02:00:53;;;;;;;28.73;8.93;;;;;;;;;;5042096;28;20052;-56
2020/12/13 02:03:21;;;;;;;30.40;8.88;;;;;;;;;;5056817;28;20052;-53
2020/12/13 02:05:55;;;;;;;26.65;8.07;;;;;;;;;;5015509;28;20128;-55
2020/12/13 02:08:23;;;;;;;28.75;7.75;;;;;;;;;;5035393;28;20044;-55
2020/12/13 02:10:49;;;;;;;29.63;8.48;;;;;;;;;;5041536;28;20132;-56
2020/12/13 02:13:17;;;;;;;34.90;9.07;;;;;;;;;;5035196;28;20030;-54
2020/12/13 02:15:43;;;;;;;28.30;8.50;;;;;;;;;;5039186;28;20052;-55
2020/12/13 02:18:10;;;;;;;30.15;7.75;;;;;;;;;;5029608;28;20061;-53
2020/12/13 02:20:37;;;;;;;32.92;9.05;;;;;;;;;;5020379;28;20037;-53
2020/12/13 02:23:08;;;;;;;36.63;8.40;;;;;;;;;;5025753;28;20033;-53
2020/12/13 02:25:34;;;;;;;30.05;8.70;;;;;;;;;;5076681;28;20076;-56
2020/12/13 02:28:00;;;;;;;33.22;9.07;;;;;;;;;;5051954;28;20029;-56
2020/12/13 02:30:26;;;;;;;29.60;7.88;;;;;;;;;;5041361;28;20051;-57
2020/12/13 02:32:52;;;;;;;28.00;9.15;;;;;;;;;;5040269;28;20041;-54
2020/12/13 02:35:18;;;;;;;24.70;8.18;;;;;;;;;;5036535;28;20064;-57
2020/12/13 02:37:47;;;;;;;30.98;8.57;;;;;;;;;;5040176;28;20050;-55
2020/12/13 02:40:14;;;;;;;29.80;8.65;;;;;;;;;;5032672;28;20045;-53
2020/12/13 02:42:40;;;;;;;25.48;8.93;;;;;;;;;;5037393;28;20073;-56
2020/12/13 02:45:07;;;;;;;24.48;8.13;;;;;;;;;;5031469;28;20052;-57
2020/12/13 02:47:33;;;;;;;25.33;8.20;;;;;;;;;;5037740;28;20081;-55
2020/12/13 02:49:59;;;;;;;27.77;8.07;;;;;;;;;;5049110;28;20053;-55
2020/12/13 02:52:25;;;;;;;33.70;8.30;;;;;;;;;;5052866;28;20041;-58
2020/12/13 02:54:51;;;;;;;33.92;7.90;;;;;;;;;;5026510;28;20041;-56
2020/12/13 02:57:18;;;;;;;28.67;8.52;;;;;;;;;;5038985;28;20040;-57
2020/12/13 02:59:46;;;;;;;22.10;7.30;;;;;;;;;;5036084;28;20103;-57
2020/12/13 03:02:12;;;;;;;21.75;7.57;;;;;;;;;;5049905;23;20116;-59
2020/12/13 03:04:38;;;;;;;28.38;8.82;;;;;;;;;;5013558;28;20058;-57
2020/12/13 03:07:04;;;;;;;29.20;8.68;;;;;;;;;;4999563;28;20046;-59
2020/12/13 03:09:30;;;;;;;30.55;8.65;;;;;;;;;;5014116;28;20044;-56
2020/12/13 03:11:56;;;;;;;29.75;8.88;;;;;;;;;;4999407;28;20038;-57
2020/12/13 03:14:23;;;;;;;29.33;8.63;;;;;;;;;;5018201;28;20049;-55
2020/12/13 03:16:49;;;;;;;30.67;8.38;;;;;;;;;;5015722;28;20050;-58
2020/12/13 03:19:16;;;;;;;25.60;8.70;;;;;;;;;;5009464;28;20054;-57
2020/12/13 03:21:42;;;;;;;24.90;7.68;;;;;;;;;;4999073;28;20061;-57
2020/12/13 03:24:11;;;;;;;31.38;8.13;;;;;;;;;;5024169;28;20061;-56
2020/12/13 03:26:37;;;;;;;26.55;8.30;;;;;;;;;;5018929;28;20060;-58
2020/12/13 03:29:03;;;;;;;31.10;8.20;;;;;;;;;;5008321;28;20050;-52
2020/12/13 03:31:30;;;;;;;26.30;8.65;;;;;;;;;;5019661;28;20128;-57
2020/12/13 03:33:56;;;;;;;28.48;7.97;;;;;;;;;;5012847;28;20271;-57
2020/12/13 03:36:22;;;;;;;30.10;8.73;;;;;;;;;;5007954;28;20507;-54
2020/12/13 03:38:50;;;;;;;34.33;8.57;;;;;;;;;;5002555;28;20038;-52
2020/12/13 03:41:16;;;;;;;28.25;8.63;;;;;;;;;;5019133;28;20038;-57
2020/12/13 03:43:42;;;;;;;32.80;8.60;;;;;;;;;;5019311;28;20057;-55
2020/12/13 03:46:08;;;;;;;29.75;7.78;;;;;;;;;;5003489;28;20050;-54
2020/12/13 03:48:35;;;;;;;29.00;8.57;;;;;;;;;;5003535;28;20057;-57
2020/12/13 03:51:02;;;;;;;25.65;8.60;;;;;;;;;;5013497;28;20046;-56
2020/12/13 03:53:29;;;;;;;31.58;8.32;;;;;;;;;;5022231;28;20038;-55
2020/12/13 03:55:55;;;;;;;31.35;8.00;;;;;;;;;;5011757;28;20046;-53
2020/12/13 03:58:21;;;;;;;24.38;8.02;;;;;;;;;;5002486;28;20063;-59
2020/12/13 04:00:47;;;;;;;31.30;8.07;;;;;;;;;;5003644;28;20069;-58
2020/12/13 04:03:13;;;;;;;30.15;8.50;;;;;;;;;;5022104;28;20054;-52
2020/12/13 04:05:40;;;;;;;33.65;9.35;;;;;;;;;;5021716;28;20437;-53
2020/12/13 04:08:13;;;;;;;24.95;8.27;;;;;;;;;;4999415;28;20056;-56
2020/12/13 04:10:39;;;;;;;33.30;8.18;;;;;;;;;;5002223;28;20042;-55
2020/12/13 04:13:05;;;;;;;31.00;9.50;;;;;;;;;;5010949;28;20119;-53
2020/12/13 04:15:31;;;;;;;31.65;8.40;;;;;;;;;;5021503;28;20041;-57
2020/12/13 04:17:57;;;;;;;37.20;9.05;;;;;;;;;;5012227;28;20057;-55
2020/12/13 04:20:23;;;;;;;31.48;8.90;;;;;;;;;;5001995;28;20061;-56
2020/12/13 04:22:50;;;;;;;27.15;8.00;;;;;;;;;;5005047;28;20123;-53
2020/12/13 04:25:16;;;;;;;27.25;8.48;;;;;;;;;;5025186;28;20065;-57
2020/12/13 04:27:44;;;;;;;28.17;8.57;;;;;;;;;;5021354;28;20049;-56
2020/12/13 04:30:10;;;;;;;32.67;8.68;;;;;;;;;;5022927;28;20595;-55
2020/12/13 04:32:36;;;;;;;25.27;8.52;;;;;;;;;;5023484;28;20077;-57
2020/12/13 04:35:03;;;;;;;24.10;8.15;;;;;;;;;;5018016;28;20041;-55
2020/12/13 04:37:29;;;;;;;30.10;8.60;;;;;;;;;;5022688;28;20049;-58
2020/12/13 04:39:56;;;;;;;35.47;9.60;;;;;;;;;;5002121;28;20050;-55
2020/12/13 04:42:23;;;;;;;28.60;8.63;;;;;;;;;;5002241;28;20531;-56
2020/12/13 04:44:49;;;;;;;26.33;9.10;;;;;;;;;;5000214;28;20038;-60
2020/12/13 04:47:16;;;;;;;24.67;8.50;;;;;;;;;;5001557;28;20042;-56
2020/12/13 04:49:46;;;;;;;26.15;8.70;;;;;;;;;;5008018;28;20046;-58
2020/12/13 04:52:12;;;;;;;24.27;8.57;;;;;;;;;;5023879;28;20073;-57
2020/12/13 04:54:39;;;;;;;25.75;8.57;;;;;;;;;;5017280;28;20046;-56
2020/12/13 04:57:07;;;;;;;27.17;8.52;;;;;;;;;;5022356;28;20045;-57
2020/12/13 04:59:34;;;;;;;27.77;8.43;;;;;;;;;;5013267;28;20054;-54
2020/12/13 05:02:01;;;;;;;29.30;9.02;;;;;;;;;;5008777;28;20042;-57
2020/12/13 05:04:27;;;;;;;24.17;7.90;;;;;;;;;;4996803;28;20073;-55
2020/12/13 05:06:53;;;;;;;31.33;8.98;;;;;;;;;;5002183;28;20046;-57
2020/12/13 05:09:21;;;;;;;28.83;8.32;;;;;;;;;;5000590;28;20034;-57
2020/12/13 05:11:47;;;;;;;24.75;7.65;;;;;;;;;;5022067;28;20049;-55
2020/12/13 05:14:14;;;;;;;21.05;8.35;;;;;;;;;;5021550;28;20041;-56
2020/12/13 05:16:40;;;;;;;22.27;7.90;;;;;;;;;;5018465;28;20139;-54
2020/12/13 05:19:07;;;;;;;22.08;7.80;;;;;;;;;;5023222;28;20037;-57
2020/12/13 05:21:33;;;;;;;30.35;8.52;;;;;;;;;;5003832;28;20166;-53
2020/12/13 05:24:02;;;;;;;26.25;8.43;;;;;;;;;;5003202;28;20046;-57
2020/12/13 05:26:28;;;;;;;26.60;8.27;;;;;;;;;;5011160;28;20030;-51
2020/12/13 05:28:54;;;;;;;23.00;8.25;;;;;;;;;;5021362;28;20086;-52
2020/12/13 05:31:23;;;;;;;26.10;8.00;;;;;;;;;;5018121;28;20131;-56
2020/12/13 05:33:52;;;;;;;20.92;8.07;;;;;;;;;;5022443;28;20045;-52
2020/12/13 05:36:18;;;;;;;23.88;7.65;;;;;;;;;;5015909;28;20111;-52
2020/12/13 05:38:45;;;;;;;23.30;7.97;;;;;;;;;;5020510;28;20180;-56
2020/12/13 05:41:12;;;;;;;22.65;7.15;;;;;;;;;;5017407;28;20054;-59
2020/12/13 05:43:41;;;;;;;21.17;7.45;;;;;;;;;;5001817;28;20165;-54
2020/12/13 05:46:35;;;;;;;26.35;8.27;;;;;;;;;;4998657;28;20022;-54
2020/12/13 05:51:55;;;;;;;20.35;7.35;;;;;;;;;;5008989;28;20406;-54
2020/12/13 05:54:24;;;;;;;22.90;6.80;;;;;;;;;;5023670;28;20120;-56
2020/12/13 05:56:52;;;;;;;27.45;6.70;;;;;;;;;;5012692;28;20852;-57
2020/12/13 05:59:18;;;;;;;19.50;7.22;;;;;;;;;;5001003;28;20041;-56
2020/12/13 06:01:46;;;;;;;16.35;7.30;;;;;;;;;;4997089;28;20060;-56
2020/12/13 06:04:15;;;;;;;17.10;6.63;;;;;;;;;;5000019;28;20128;-53
2020/12/13 06:06:43;;;;;;;23.08;7.70;;;;;;;;;;5004746;28;20088;-57
2020/12/13 06:09:09;;;;;;;18.27;6.80;;;;;;;;;;5019964;28;20042;-56
2020/12/13 06:11:36;;;;;;;19.85;7.13;;;;;;;;;;5017799;28;20057;-54
2020/12/13 06:14:07;;;;;;;18.25;7.15;;;;;;;;;;4998657;28;20051;-55
2020/12/13 06:16:33;;;;;;;20.38;7.25;;;;;;;;;;4999541;28;20120;-54
2020/12/13 06:18:59;;;;;;;20.83;7.32;;;;;;;;;;4997417;28;20042;-56
2020/12/13 06:21:27;;;;;;;25.95;7.55;;;;;;;;;;5000856;28;20062;-57
2020/12/13 06:23:53;;;;;;;21.48;7.25;;;;;;;;;;4997789;28;20050;-58
2020/12/13 06:26:19;;;;;;;17.02;6.63;;;;;;;;;;5001624;28;20042;-53
2020/12/13 06:28:46;;;;;;;20.13;6.80;;;;;;;;;;5009238;28;20046;-57
2020/12/13 06:31:15;;;;;;;19.27;7.10;;;;;;;;;;5020765;28;20440;-57
2020/12/13 06:33:41;;;;;;;16.08;6.28;;;;;;;;;;5018963;28;20054;-55
2020/12/13 06:36:08;;;;;;;20.15;7.50;;;;;;;;;;5020082;28;20045;-58
2020/12/13 06:38:35;;;;;;;23.38;7.30;;;;;;;;;;5007487;28;20098;-57
2020/12/13 06:41:06;;;;;;;28.00;7.70;;;;;;;;;;4999711;28;20038;-54
2020/12/13 06:43:38;;;;;;;18.42;6.93;;;;;;;;;;5003646;28;20045;-56
2020/12/13 06:46:19;;;;;;;21.25;7.05;;;;;;;;;;5020835;28;20038;-57
2020/12/13 06:48:45;;;;;;;19.85;6.97;;;;;;;;;;5013176;28;20026;-52
2020/12/13 06:51:16;;;;;;;19.73;6.45;;;;;;;;;;5004298;28;20108;-55
2020/12/13 06:53:43;;;;;;;22.08;7.55;;;;;;;;;;5001731;28;20120;-57
2020/12/13 06:56:09;;;;;;;29.17;8.48;;;;;;;;;;5004067;28;20336;-57
2020/12/13 06:58:45;;;;;;;18.35;8.15;;;;;;;;;;4998577;28;20074;-56
2020/12/13 07:01:15;;;;;;;28.33;7.82;;;;;;;;;;5004081;28;20070;-54
2020/12/13 07:03:41;;;;;;;19.83;7.70;;;;;;;;;;4999186;28;20058;-58
2020/12/13 07:06:16;;;;;;;21.17;7.32;;;;;;;;;;5004275;28;20042;-55
2020/12/13 07:08:47;;;;;;;24.58;8.48;;;;;;;;;;5002959;28;20045;-54
2020/12/13 07:11:14;;;;;;;22.30;7.80;;;;;;;;;;5021682;28;20060;-53
2020/12/13 07:13:42;;;;;;;26.30;7.72;;;;;;;;;;5023558;28;20041;-53
2020/12/13 07:16:11;;;;;;;24.70;7.57;;;;;;;;;;5005325;28;20054;-52
2020/12/13 07:18:42;;;;;;;23.90;7.70;;;;;;;;;;5004150;28;20049;-56
2020/12/13 07:21:08;;;;;;;29.92;7.72;;;;;;;;;;5000215;28;20030;-56
2020/12/13 07:23:36;;;;;;;19.83;8.13;;;;;;;;;;5005396;28;20113;-57
2020/12/13 07:26:03;;;;;;;22.15;7.38;;;;;;;;;;5012961;28;20053;-55
2020/12/13 07:28:31;;;;;;;19.35;7.78;;;;;;;;;;5023961;28;20073;-56
2020/12/13 07:30:57;;;;;;;;;;;;;;;;;;5019945;28;20049;-57
2020/12/13 07:33:23;;;;;;;22.27;6.90;;;;;;;;;;5021400;28;19969;-56
2020/12/13 07:35:49;;;;;;;18.75;7.35;;;;;;;;;;5011949;28;20096;-58
2020/12/13 07:38:16;;;;;;;15.65;6.78;;;;;;;;;;5002234;28;20046;-57
2020/12/13 07:40:42;;;;;;;19.02;7.70;;;;;;;;;;5000546;28;20056;-56
2020/12/13 07:43:09;;;;;;;18.38;7.35;;;;;;;;;;5003567;28;20104;-54
2020/12/13 07:45:35;;;;;;;17.33;7.22;;;;;;;;;;5000974;28;20042;-54
2020/12/13 07:48:02;;;;;;;19.75;8.27;;;;;;;;;;5013021;28;20078;-55
2020/12/13 07:50:29;;;;;;;16.65;7.95;;;;;;;;;;5017568;28;20038;-57
2020/12/13 07:52:55;;;;;;;16.30;8.02;;;;;;;;;;5001477;28;20042;-55
2020/12/13 07:55:21;;;;;;;24.17;8.15;;;;;;;;;;5002055;28;20078;-57
2020/12/13 07:57:49;;;;;;;18.98;7.45;;;;;;;;;;5015399;28;20099;-51
2020/12/13 08:00:16;;;;;;;19.80;7.03;;;;;;;;;;5020685;28;20041;-54
2020/12/13 08:02:43;;;;;;;22.63;8.10;;;;;;;;;;5000955;28;20140;-56
2020/12/13 08:05:10;;;;;;;24.58;7.97;;;;;;;;;;5003451;28;20097;-58
2020/12/13 08:07:36;;;;;;;17.98;7.72;;;;;;;;;;4997329;28;20045;-52
2020/12/13 08:10:03;;;;;;;19.95;7.70;;;;;;;;;;5003558;28;20034;-56
2020/12/13 08:12:29;;;;;;;16.52;7.53;;;;;;;;;;5009956;28;20112;-53
2020/12/13 08:14:57;;;;;;;23.73;9.52;;;;;;;;;;5022250;28;20131;-57
2020/12/13 08:17:24;;;;;;;21.58;7.68;;;;;;;;;;5010977;28;20103;-54
2020/12/13 08:19:52;;;;;;;23.33;7.53;;;;;;;;;;5015525;28;20058;-57
2020/12/13 08:22:20;;;;;;;22.02;7.32;;;;;;;;;;5004298;28;20050;-57
2020/12/13 08:24:52;;;;;;;13.65;6.65;;;;;;;;;;5002254;28;20052;-57
2020/12/13 08:27:18;;;;;;;19.02;7.47;;;;;;;;;;5008103;28;20055;-57
2020/12/13 08:29:46;;;;;;;17.25;7.05;;;;;;;;;;5013765;28;20135;-57
2020/12/13 08:32:13;;;;;;;19.92;6.95;;;;;;;;;;5010935;28;20045;-57
2020/12/13 08:34:43;;;;;;;16.50;6.35;;;;;;;;;;5011161;28;20042;-57
2020/12/13 08:37:12;;;;;;;16.25;7.05;;;;;;;;;;5010385;28;20047;-58
2020/12/13 08:39:38;;;;;;;;;;;;;;;;;;5008902;28;20073;-54
2020/12/13 08:42:05;;;;;;;16.48;6.10;;;;;;;;;;5004400;28;19932;-59
2020/12/13 08:44:32;;;;;;;17.17;6.88;;;;;;;;;;5010261;28;20104;-57
2020/12/13 08:47:00;;;;;;;21.55;6.70;;;;;;;;;;5010923;28;20105;-60
2020/12/13 08:49:32;;;;;;;17.63;7.18;;;;;;;;;;5013715;28;20046;-58
2020/12/13 08:52:11;;;;;;;13.65;6.70;;;;;;;;;;5012902;28;20058;-57
2020/12/13 08:54:43;;;;;;;24.20;6.70;;;;;;;;;;5009081;28;20045;-59
2020/12/13 08:57:09;;;;;;;18.30;6.13;;;;;;;;;;5017203;28;20083;-60
2020/12/13 08:59:44;;;;;;;17.83;6.88;;;;;;;;;;5006374;28;20033;-58
2020/12/13 09:02:22;;;;;;;18.35;6.38;;;;;;;;;;5010783;28;20204;-58
2020/12/13 09:04:54;;;;;;;17.45;5.97;;;;;;;;;;5008169;28;20078;-55
2020/12/13 09:07:21;;;;;;;26.80;8.13;;;;;;;;;;5009123;28;20061;-58
2020/12/13 09:09:48;;;;;;;19.65;8.23;;;;;;;;;;5007548;28;20042;-58
2020/12/13 09:12:17;;;;;;;19.88;7.53;;;;;;;;;;5020527;28;20051;-58
2020/12/13 09:14:43;;;;;;;19.30;6.45;;;;;;;;;;5016822;28;20046;-54
2020/12/13 09:17:09;;;;;;;20.30;6.60;;;;;;;;;;5023833;28;20045;-60
2020/12/13 09:19:47;;;;;;;13.50;5.78;;;;;;;;;;5015788;28;20056;-61
2020/12/13 09:22:18;;;;;;;27.35;7.57;;;;;;;;;;5009018;28;20104;-57
2020/12/13 09:24:45;;;;;;;19.23;7.03;;;;;;;;;;4995867;28;20034;-55
2020/12/13 09:27:18;;;;;;;16.75;6.40;;;;;;;;;;4999730;28;20489;-56
2020/12/13 09:29:47;;;;;;;18.00;6.55;;;;;;;;;;4997364;28;20045;-57
2020/12/13 09:32:13;;;;;;;16.40;7.47;;;;;;;;;;5000858;28;20046;-59
2020/12/13 09:34:39;;;;;;;19.95;6.45;;;;;;;;;;4991408;28;20071;-56
2020/12/13 09:37:08;;;;;;;29.30;7.18;;;;;;;;;;5021691;28;20052;-53
2020/12/13 09:39:35;;;;;;;17.48;6.35;;;;;;;;;;5018809;28;20054;-58
2020/12/13 09:42:06;;;;;;;15.73;6.82;;;;;;;;;;5008505;28;20518;-60
2020/12/13 09:44:35;;;;;;;14.07;6.57;;;;;;;;;;5002374;28;20049;-58
2020/12/13 09:47:01;;;;;;;18.10;7.03;;;;;;;;;;4997692;28;20046;-61
2020/12/13 09:49:29;;;;;;;19.23;7.85;;;;;;;;;;5012262;28;20042;-55
2020/12/13 09:51:56;;;;;;;19.77;6.63;;;;;;;;;;5015223;28;20041;-55
2020/12/13 09:54:22;;;;;;;23.63;7.68;;;;;;;;;;5019246;28;20476;-58
2020/12/13 09:56:48;;;;;;;29.70;8.50;;;;;;;;;;5012447;28;20097;-58
2020/12/13 09:59:19;;;;;;;28.38;8.32;;;;;;;;;;5009498;28;20061;-57
2020/12/13 10:01:45;;;;;;;25.75;8.88;;;;;;;;;;5009192;28;20042;-57
2020/12/13 10:04:12;;;;;;;29.75;8.55;;;;;;;;;;5017680;28;20042;-56
2020/12/13 10:09:24;;;;;;;25.80;9.63;;;;;;;;;;5013167;28;20049;-60
2020/12/13 10:11:53;;;;;;;27.83;9.02;;;;;;;;;;5017710;28;20026;-58
2020/12/13 10:14:21;;;;;;;34.10;10.00;;;;;;;;;;5022812;28;20057;-55
2020/12/13 10:16:48;;;;;;;29.42;10.80;;;;;;;;;;5019635;28;20123;-57
2020/12/13 10:19:14;;;;;;;30.17;10.98;;;;;;;;;;5021842;28;20093;-59
2020/12/13 10:21:46;;;;;;;30.77;9.32;;;;;;;;;;5005439;28;20034;-59
2020/12/13 10:24:12;;;;;;;22.33;8.20;;;;;;;;;;4987614;28;20038;-55
2020/12/13 10:26:41;;;;;;;28.88;8.32;;;;;;;;;;4992521;28;20056;-61
2020/12/13 10:29:10;;;;;;;21.85;7.80;;;;;;;;;;5002493;28;20079;-60
2020/12/13 10:31:38;;;;;;;21.65;6.88;;;;;;;;;;4996664;28;20053;-61
2020/12/13 10:34:06;;;;;;;22.73;7.50;;;;;;;;;;4996242;28;20037;-59
2020/12/13 10:36:32;;;;;;;17.38;7.38;;;;;;;;;;5021266;28;20286;-59
2020/12/13 10:39:12;;;;;;;18.60;7.50;;;;;;;;;;5002819;28;20050;-58
2020/12/13 10:41:43;;;;;;;27.65;7.38;;;;;;;;;;5004090;28;20052;-59
2020/12/13 10:44:10;;;;;;;24.30;8.75;;;;;;;;;;5000300;28;20038;-59
2020/12/13 10:46:39;;;;;;;23.60;8.25;;;;;;;;;;5004806;28;20074;-59
2020/12/13 10:49:08;;;;;;;17.45;6.75;;;;;;;;;;5013668;28;20133;-60
2020/12/13 10:51:37;;;;;;;20.30;6.30;;;;;;;;;;5020936;28;20064;-60
2020/12/13 10:54:08;;;;;;;18.95;6.07;;;;;;;;;;5018870;28;20370;-59
2020/12/13 10:56:35;;;;;;;19.95;6.10;;;;;;;;;;5019957;28;20030;-56
2020/12/13 10:59:03;;;;;;;12.50;5.90;;;;;;;;;;5006810;28;20049;-56
2020/12/13 11:01:29;;;;;;;18.63;5.93;;;;;;;;;;4998575;28;20067;-56
2020/12/13 11:03:56;;;;;;;15.50;5.82;;;;;;;;;;5002593;28;20041;-56
2020/12/13 11:06:24;;;;;;;19.70;5.72;;;;;;;;;;4999601;28;20070;-60
2020/12/13 11:08:52;;;;;;;18.83;5.38;;;;;;;;;;5014987;28;20034;-60
2020/12/13 11:11:21;;;;;;;19.52;5.30;;;;;;;;;;5002865;28;20090;-58
2020/12/13 11:13:46;;;;;;;20.17;5.50;;;;;;;;;;5012303;28;20041;-57
2020/12/13 11:16:13;;;;;;;17.23;5.15;;;;;;;;;;5023731;28;21067;-57
2020/12/13 11:18:40;;;;;;;27.35;5.28;;;;;;;;;;5019653;28;20129;-53
2020/12/13 11:21:07;;;;;;;13.18;5.25;;;;;;;;;;5002735;28;20042;-56
2020/12/13 11:23:33;;;;;;;19.90;5.20;;;;;;;;;;5004670;28;20077;-55
2020/12/13 11:25:59;;;;;;;22.38;6.38;;;;;;;;;;5010102;28;20038;-57
2020/12/13 11:28:27;;;;;;;13.02;5.82;;;;;;;;;;5003848;28;20042;-57
2020/12/13 11:30:53;;;;;;;17.10;5.03;;;;;;;;;;5016282;28;20464;-56
2020/12/13 11:33:20;;;;;;;20.00;5.57;;;;;;;;;;5024531;28;20049;-58
2020/12/13 11:35:46;;;;;;;21.27;5.47;;;;;;;;;;5019960;28;20060;-60
2020/12/13 11:38:14;;;;;;;18.02;5.72;;;;;;;;;;5025496;28;20127;-61
2020/12/13 11:40:40;;;;;;;21.60;5.50;;;;;;;;;;5017069;28;20121;-57
2020/12/13 11:43:06;;;;;;;13.23;4.90;;;;;;;;;;5006267;28;20295;-60
2020/12/13 11:45:32;;;;;;;8.73;3.85;;;;;;;;;;5008541;28;20037;-60
2020/12/13 11:48:01;;;;;;;16.13;4.97;;;;;;;;;;5025686;28;20057;-57
2020/12/13 11:50:28;;;;;;;19.23;4.10;;;;;;;;;;5012868;28;20086;-58
2020/12/13 11:52:54;;;;;;;14.95;4.25;;;;;;;;;;5001814;28;20049;-59
2020/12/13 11:55:21;;;;;;;13.45;4.47;;;;;;;;;;5000234;28;20050;-56
2020/12/13 11:57:50;;;;;;;16.58;3.83;;;;;;;;;;5001994;28;20034;-59
2020/12/13 12:00:16;;;;;;;15.30;3.70;;;;;;;;;;5000051;28;20078;-59
2020/12/13 12:02:42;;;;;;;15.13;3.83;;;;;;;;;;5007771;28;20078;-57
2020/12/13 12:05:11;;;;;;;13.85;4.30;;;;;;;;;;5001350;28;20034;-59
2020/12/13 12:07:37;;;;;;;10.02;3.60;;;;;;;;;;4999475;28;20391;-58
2020/12/13 12:10:10;;;;;;;18.25;3.15;;;;;;;;;;5001770;28;20064;-58
2020/12/13 12:12:37;;;;;;;16.33;3.75;;;;;;;;;;5004789;28;20049;-56
2020/12/13 12:15:04;;;;;;;13.18;3.63;;;;;;;;;;5002283;28;20054;-59
2020/12/13 12:17:31;;;;;;;14.55;3.45;;;;;;;;;;5011826;28;20056;-56
2020/12/13 12:19:57;;;;;;;14.25;3.63;;;;;;;;;;5021502;28;20049;-61
2020/12/13 12:22:25;;;;;;;9.68;3.38;;;;;;;;;;5007762;28;20094;-61
2020/12/13 12:24:53;;;;;;;20.70;4.07;;;;;;;;;;4987922;28;20034;-60
2020/12/13 12:27:19;;;;;;;9.20;3.42;;;;;;;;;;4998392;28;20050;-58
2020/12/13 12:29:47;;;;;;;14.48;3.28;;;;;;;;;;5001910;28;20046;-61
2020/12/13 12:32:14;;;;;;;14.48;3.25;;;;;;;;;;5005257;28;20088;-61
2020/12/13 12:34:40;;;;;;;9.15;2.63;;;;;;;;;;5020968;28;20110;-56
2020/12/13 12:37:09;;;;;;;15.85;2.90;;;;;;;;;;5014045;28;20046;-56
2020/12/13 12:39:35;;;;;;;12.85;2.78;;;;;;;;;;5001806;28;20046;-60
2020/12/13 12:42:01;;;;;;;6.75;2.50;;;;;;;;;;5000022;28;20034;-59
2020/12/13 12:44:31;;;;;;;7.25;2.30;;;;;;;;;;5002576;28;20045;-59
2020/12/13 12:46:58;;;;;;;8.90;2.47;;;;;;;;;;5000215;28;20054;-56
2020/12/13 12:49:25;;;;;;;8.25;2.60;;;;;;;;;;5020275;28;20094;-58
2020/12/13 12:51:51;;;;;;;12.32;2.63;;;;;;;;;;5011710;28;20144;-58
2020/12/13 12:54:18;;;;;;;21.80;2.90;;;;;;;;;;4992997;28;20550;-58
2020/12/13 12:56:44;;;;;;;7.78;2.47;;;;;;;;;;5003399;28;20045;-58
2020/12/13 12:59:12;;;;;;;8.68;2.50;;;;;;;;;;4997432;28;20097;-57
2020/12/13 13:01:41;;;;;;;7.13;2.13;;;;;;;;;;5001596;28;20038;-57
2020/12/13 13:04:11;;;;;;;;;;;;;;;;;;5010851;28;20123;-60
2020/12/13 13:09:27;;;;;;;11.63;3.28;;;;;;;;;;5015568;28;20037;-59
2020/12/13 13:11:53;;;;;;;17.83;4.53;;;;;;;;;;5020472;28;20033;-56
2020/12/13 13:14:21;;;;;;;13.82;3.97;;;;;;;;;;5018745;28;20045;-58
2020/12/13 13:16:47;;;;;;;13.18;3.10;;;;;;;;;;5021372;28;20045;-59
2020/12/13 13:19:16;;;;;;;10.95;3.42;;;;;;;;;;5015351;28;20049;-59
2020/12/13 13:21:46;;;;;;;13.65;3.92;;;;;;;;;;5012101;28;20065;-58
2020/12/13 13:24:12;;;;;;;11.50;4.10;;;;;;;;;;4997126;28;20037;-57
2020/12/13 13:26:40;;;;;;;10.90;4.03;;;;;;;;;;5000366;28;20058;-60
2020/12/13 13:29:09;;;;;;;8.30;2.92;;;;;;;;;;4998365;28;20320;-59
2020/12/13 13:31:35;;;;;;;9.23;2.55;;;;;;;;;;5001612;28;20038;-58
2020/12/13 13:34:01;;;;;;;11.18;3.05;;;;;;;;;;4998899;28;20054;-61
2020/12/13 13:36:27;;;;;;;10.40;3.50;;;;;;;;;;5000942;28;20042;-58
2020/12/13 13:38:55;;;;;;;13.77;2.92;;;;;;;;;;5000602;28;20146;-58
2020/12/13 13:41:24;;;;;;;10.20;2.92;;;;;;;;;;5014832;28;20078;-57
2020/12/13 13:43:53;;;;;;;10.95;2.58;;;;;;;;;;5001328;28;20034;-58
2020/12/13 13:46:33;;;;;;;10.18;3.08;;;;;;;;;;4998896;28;20060;-58
2020/12/13 13:51:45;;;;;;;8.02;3.03;;;;;;;;;;4971280;28;20153;-58
2020/12/13 13:54:14;;;;;;;7.75;2.95;;;;;;;;;;5000936;28;20034;-57
2020/12/13 13:56:47;;;;;;;8.57;2.75;;;;;;;;;;4996385;28;20041;-58
2020/12/13 13:59:17;;;;;;;15.32;4.32;;;;;;;;;;5000518;28;20034;-59
2020/12/13 14:01:44;;;;;;;10.07;4.00;;;;;;;;;;4998430;28;20057;-55
2020/12/13 14:04:13;;;;;;;13.23;3.92;;;;;;;;;;5020817;28;20041;-55
2020/12/13 14:07:07;;;;;;;16.25;3.72;;;;;;;;;;4995789;28;20046;-58
2020/12/13 14:09:34;;;;;;;9.45;3.63;;;;;;;;;;4999736;28;20082;-55
2020/12/13 14:12:00;;;;;;;10.35;3.20;;;;;;;;;;4997097;28;20038;-56
2020/12/13 14:14:31;;;;;;;14.52;3.33;;;;;;;;;;5000562;28;20230;-59
2020/12/13 14:16:59;;;;;;;14.02;3.83;;;;;;;;;;4996106;28;20070;-57
2020/12/13 14:19:26;;;;;;;;;;;;;;;;;;4999521;28;20038;-61
2020/12/13 14:21:52;;;;;;;23.02;6.95;;;;;;;;;;4998533;28;19936;-53
2020/12/13 14:24:18;;;;;;;16.33;6.30;;;;;;;;;;5018009;28;20088;-54
2020/12/13 14:26:47;;;;;;;13.48;4.88;;;;;;;;;;5009756;28;20127;-58
2020/12/13 14:29:15;;;;;;;17.48;4.03;;;;;;;;;;5013413;28;20040;-59
2020/12/13 14:31:41;;;;;;;15.35;4.22;;;;;;;;;;4995969;28;20050;-59
2020/12/13 14:34:08;;;;;;;14.27;4.45;;;;;;;;;;4990465;28;20038;-59
2020/12/13 14:36:34;;;;;;;16.60;4.43;;;;;;;;;;4996643;28;20056;-59
2020/12/13 14:39:01;;;;;;;15.98;4.30;;;;;;;;;;4999263;28;20041;-59
2020/12/13 14:41:28;;;;;;;13.20;3.42;;;;;;;;;;4998057;28;20046;-64
2020/12/13 14:43:59;;;;;;;13.90;3.78;;;;;;;;;;4981343;28;20034;-68